Time;durP1;ratioP1;P1;durP2;ratioP2;P2;SDS_P1;SDS_P2;PMS_P1;PMS_P2;Temp;Humidity;BMP_temperature;BMP_pressure;BME280_temperature;BME280_humidity;BME280_pressure;Samples;Min_cycle;Max_cycle;Signal;HPM_P1;HPM_P2
2024/01/29 00:02:15;;;;;;;9.25;0.77;;;;;;;2.05;70.81;102079.06;5006939;28;20488;-76
2024/01/29 00:04:42;;;;;;;7.32;0.93;;;;;;;2.04;70.88;102065.25;4999532;28;20085;-75
2024/01/29 00:07:09;;;;;;;2.28;0.40;;;;;;;2.05;70.91;102066.16;5001566;28;20077;-74
2024/01/29 00:09:36;;;;;;;4.50;0.55;;;;;;;2.04;71.10;102066.97;5002841;28;20134;-76
2024/01/29 00:12:05;;;;;;;2.22;0.40;;;;;;;2.03;70.71;102057.50;4999388;28;20082;-74
2024/01/29 00:14:32;;;;;;;4.30;0.52;;;;;;;2.03;70.35;102054.91;5002181;28;20042;-75
2024/01/29 00:17:00;;;;;;;2.53;0.30;;;;;;;2.02;70.03;102061.78;4999897;28;20133;-76
2024/01/29 00:19:27;;;;;;;4.78;0.47;;;;;;;2.02;69.38;102054.03;5001159;28;20054;-74
2024/01/29 00:21:54;;;;;;;1.65;0.25;;;;;;;2.02;69.33;102054.03;5001441;28;20141;-75
2024/01/29 00:24:21;;;;;;;5.60;0.57;;;;;;;2.01;69.71;102047.09;4994840;28;20077;-75
2024/01/29 00:26:50;;;;;;;0.85;0.20;;;;;;;2.01;69.72;102049.69;5001840;28;20502;-75
2024/01/29 00:29:18;;;;;;;3.22;0.30;;;;;;;2.02;68.94;102048.00;5001601;28;20057;-75
2024/01/29 00:31:45;;;;;;;6.32;0.35;;;;;;;2.02;69.23;102035.09;4999106;28;20081;-75
2024/01/29 00:34:12;;;;;;;1.95;0.20;;;;;;;2.02;69.46;102048.00;4999498;28;20054;-75
2024/01/29 00:36:39;;;;;;;2.22;0.30;;;;;;;2.03;69.19;102037.72;5001636;28;20092;-75
2024/01/29 00:39:09;;;;;;;1.60;0.22;;;;;;;2.04;69.63;102044.63;4992203;28;20137;-75
2024/01/29 00:41:36;;;;;;;3.88;0.40;;;;;;;2.04;69.51;102049.78;4997962;28;20054;-75
2024/01/29 00:44:03;;;;;;;4.63;0.30;;;;;;;2.05;69.38;102042.94;4998021;28;20077;-75
2024/01/29 00:46:32;;;;;;;5.18;0.52;;;;;;;2.05;69.30;102036.06;4997358;28;20419;-75
2024/01/29 00:48:59;;;;;;;5.45;0.30;;;;;;;2.06;69.36;102037.81;5000050;28;20125;-75
2024/01/29 00:51:26;;;;;;;3.25;0.40;;;;;;;2.07;69.31;102049.00;4998149;28;20077;-76
2024/01/29 00:53:53;;;;;;;4.35;0.30;;;;;;;1.99;69.31;102035.88;5004783;28;20125;-76
2024/01/29 00:56:20;;;;;;;3.40;0.32;;;;;;;2.06;68.96;102029.19;4999789;28;20138;-77
2024/01/29 00:58:47;;;;;;;2.70;0.30;;;;;;;2.08;68.86;102027.53;5000509;28;20084;-76
2024/01/29 01:01:14;;;;;;;4.32;0.40;;;;;;;2.08;68.84;102030.13;5001217;28;20515;-72
2024/01/29 01:03:42;;;;;;;5.03;0.30;;;;;;;2.08;69.09;102028.41;5001440;28;20130;-71
2024/01/29 01:06:10;;;;;;;2.42;0.20;;;;;;;2.10;69.20;102025.88;5000345;28;20084;-72
2024/01/29 01:08:38;;;;;;;8.30;1.17;;;;;;;2.09;68.99;102021.53;5000377;28;20120;-71
2024/01/29 01:11:05;;;;;;;4.45;0.40;;;;;;;2.09;68.57;102014.66;5002316;28;20125;-71
2024/01/29 01:13:32;;;;;;;6.78;0.57;;;;;;;2.10;68.79;102005.22;4998462;28;20501;-71
2024/01/29 01:15:59;;;;;;;1.27;0.35;;;;;;;2.11;68.78;102001.81;4998474;28;20058;-71
2024/01/29 01:18:26;;;;;;;4.90;0.40;;;;;;;2.11;68.38;101992.38;5000667;28;20074;-71
2024/01/29 01:20:54;;;;;;;3.78;0.20;;;;;;;2.11;68.75;101982.03;4997138;28;20073;-71
2024/01/29 01:23:21;;;;;;;8.40;1.25;;;;;;;2.11;68.63;101978.59;4999317;28;20081;-71
2024/01/29 01:25:48;;;;;;;2.17;0.28;;;;;;;2.12;68.22;101978.63;4997698;28;20504;-71
2024/01/29 01:28:15;;;;;;;3.72;0.43;;;;;;;2.12;67.66;101982.91;5000925;28;20104;-72
2024/01/29 01:30:42;;;;;;;3.60;0.30;;;;;;;2.10;67.70;101963.91;5000655;28;20086;-71
2024/01/29 01:33:08;;;;;;;2.03;0.50;;;;;;;2.11;67.92;101968.25;4999850;28;20551;-71
2024/01/29 01:35:35;;;;;;;2.35;0.30;;;;;;;2.11;68.12;101974.28;4999984;28;20081;-71
2024/01/29 01:38:04;;;;;;;1.85;0.20;;;;;;;2.12;67.94;101962.25;5001492;28;20078;-71
2024/01/29 01:40:31;;;;;;;5.65;0.52;;;;;;;2.12;67.58;101970.88;4997065;28;20081;-72
2024/01/29 01:42:58;;;;;;;6.80;0.63;;;;;;;2.12;67.54;101965.72;4998868;28;20122;-71
2024/01/29 01:45:25;;;;;;;4.97;0.40;;;;;;;2.10;67.54;101962.22;4993902;28;20074;-71
2024/01/29 01:47:52;;;;;;;5.10;0.40;;;;;;;2.13;67.46;101964.91;5000223;28;20822;-71
2024/01/29 01:50:19;;;;;;;5.63;0.77;;;;;;;2.15;67.23;101977.84;4997901;28;20085;-71
2024/01/29 01:52:47;;;;;;;2.20;0.30;;;;;;;2.14;67.43;101966.66;4998752;28;20530;-72
2024/01/29 01:55:16;;;;;;;4.85;0.40;;;;;;;2.14;66.65;101956.31;4997971;28;20485;-72
2024/01/29 01:57:44;;;;;;;1.80;0.30;;;;;;;2.15;66.86;101957.19;5004176;28;20077;-71
2024/01/29 02:00:12;;;;;;;3.08;1.10;;;;;;;2.14;66.43;101956.31;5003369;28;20520;-70
2024/01/29 02:02:40;;;;;;;4.95;1.20;;;;;;;2.15;66.19;101947.72;5002611;28;20057;-73
2024/01/29 02:05:07;;;;;;;6.07;0.50;;;;;;;2.15;65.96;101954.59;4986576;28;20152;-74
2024/01/29 02:07:34;;;;;;;2.85;0.38;;;;;;;2.15;66.26;101947.72;5002628;28;20556;-73
2024/01/29 02:10:01;;;;;;;5.70;0.40;;;;;;;2.16;66.48;101948.63;5003496;28;20128;-73
2024/01/29 02:12:30;;;;;;;2.35;0.75;;;;;;;2.16;66.17;101948.63;5003006;28;20554;-75
2024/01/29 02:14:57;;;;;;;2.80;0.40;;;;;;;2.16;66.46;101940.88;5001795;28;20084;-76
2024/01/29 02:17:23;;;;;;;5.75;0.65;;;;;;;2.16;66.13;101933.13;5004490;28;20081;-75
2024/01/29 02:19:49;;;;;;;3.38;0.55;;;;;;;2.16;66.12;101940.88;5001326;28;20085;-75
2024/01/29 02:22:16;;;;;;;4.63;0.40;;;;;;;2.14;65.85;101932.22;5004278;28;20069;-75
2024/01/29 02:24:45;;;;;;;2.47;0.55;;;;;;;2.16;65.83;101933.13;5000512;28;20508;-75
2024/01/29 02:27:12;;;;;;;4.05;0.40;;;;;;;2.15;65.95;101916.75;5003413;28;20484;-75
2024/01/29 02:29:39;;;;;;;2.30;0.40;;;;;;;2.12;66.11;101921.81;5002838;28;20061;-75
2024/01/29 02:32:06;;;;;;;2.25;0.30;;;;;;;2.13;65.72;101918.44;5000865;28;20089;-75
2024/01/29 02:34:33;;;;;;;6.60;0.57;;;;;;;2.12;65.95;101911.50;4998661;28;20081;-76
2024/01/29 02:37:00;;;;;;;4.03;0.38;;;;;;;2.12;65.97;101905.47;5001556;28;20543;-76
2024/01/29 02:39:27;;;;;;;5.95;0.85;;;;;;;2.14;65.99;101915.00;5002290;28;20125;-76
2024/01/29 02:41:55;;;;;;;3.70;0.45;;;;;;;2.11;65.90;101899.44;5000991;28;20133;-75
2024/01/29 02:44:22;;;;;;;6.68;1.85;;;;;;;2.11;65.78;101906.31;5003160;28;20129;-75
2024/01/29 02:46:49;;;;;;;2.05;0.40;;;;;;;2.11;65.79;101898.56;5002294;28;20082;-75
2024/01/29 02:49:16;;;;;;;3.05;0.40;;;;;;;2.11;65.68;101896.84;4996769;28;20961;-76
2024/01/29 02:51:43;;;;;;;5.70;0.40;;;;;;;2.10;65.91;101896.78;5004502;28;20078;-75
2024/01/29 02:54:10;;;;;;;4.60;0.50;;;;;;;2.10;65.71;101887.34;4996365;28;20125;-75
2024/01/29 02:56:37;;;;;;;3.65;0.40;;;;;;;2.09;65.78;101883.00;5002447;28;20078;-75
2024/01/29 02:59:05;;;;;;;8.32;0.40;;;;;;;2.09;66.00;101885.59;5004183;28;20508;-76
2024/01/29 03:01:32;;;;;;;3.15;0.60;;;;;;;2.09;65.93;101887.31;5000965;28;20129;-76
2024/01/29 03:03:59;;;;;;;2.88;0.70;;;;;;;2.09;65.86;101882.13;5005370;28;20081;-76
2024/01/29 03:06:26;;;;;;;2.22;0.43;;;;;;;2.07;65.75;101884.66;4998001;28;20128;-75
2024/01/29 03:08:53;;;;;;;5.25;0.70;;;;;;;2.08;65.80;101878.69;4998776;28;20077;-75
2024/01/29 03:11:20;;;;;;;3.50;0.30;;;;;;;2.08;65.51;101877.81;5003769;28;20132;-71
2024/01/29 03:13:48;;;;;;;2.75;0.30;;;;;;;2.06;65.78;101869.13;4999276;28;20471;-72
2024/01/29 03:16:16;;;;;;;3.95;1.77;;;;;;;2.05;65.66;101873.44;5002757;28;20528;-71
2024/01/29 03:18:43;;;;;;;4.43;0.47;;;;;;;2.06;65.74;101879.47;4999833;28;20084;-72
2024/01/29 03:21:10;;;;;;;3.17;0.30;;;;;;;2.04;65.54;101871.66;5005155;28;20088;-75
2024/01/29 03:23:37;;;;;;;5.90;0.40;;;;;;;2.05;65.72;101880.31;5006334;28;20077;-76
2024/01/29 03:26:04;;;;;;;6.55;0.70;;;;;;;2.05;65.77;101882.88;5004051;28;20086;-76
2024/01/29 03:28:31;;;;;;;2.97;0.57;;;;;;;2.04;65.55;101878.53;5001362;28;20087;-75
2024/01/29 03:30:58;;;;;;;3.15;0.30;;;;;;;2.04;65.69;101883.69;5003089;28;20089;-75
2024/01/29 03:33:26;;;;;;;2.58;0.50;;;;;;;2.03;65.45;101859.59;5004155;28;20082;-75
2024/01/29 03:35:53;;;;;;;3.08;0.47;;;;;;;2.02;65.38;101852.69;5003457;28;20125;-76
2024/01/29 03:38:20;;;;;;;5.32;0.40;;;;;;;2.02;65.02;101857.84;5000117;28;20146;-75
2024/01/29 03:40:47;;;;;;;4.47;0.60;;;;;;;2.03;65.39;101848.41;4998210;28;20664;-76
2024/01/29 03:43:14;;;;;;;2.75;0.32;;;;;;;2.03;65.20;101853.56;5003014;28;20096;-75
2024/01/29 03:45:41;;;;;;;5.45;0.40;;;;;;;2.02;65.20;101846.66;4998227;28;20133;-75
2024/01/29 03:48:08;;;;;;;5.20;0.40;;;;;;;2.02;65.29;101844.94;5004049;28;20084;-75
2024/01/29 03:50:36;;;;;;;3.58;0.38;;;;;;;2.02;65.15;101837.22;5003960;28;20140;-76
2024/01/29 03:53:04;;;;;;;7.03;0.30;;;;;;;2.02;64.88;101831.19;4999259;28;20077;-76
2024/01/29 03:55:31;;;;;;;2.85;0.35;;;;;;;2.02;64.76;101831.19;5001575;28;20089;-76
2024/01/29 03:57:58;;;;;;;5.85;0.40;;;;;;;2.02;64.73;101824.31;5002081;28;20049;-75
2024/01/29 04:00:26;;;;;;;4.80;0.52;;;;;;;2.03;65.05;101827.75;5001915;28;20546;-75
2024/01/29 04:02:53;;;;;;;3.05;0.40;;;;;;;2.04;65.06;101832.06;5002446;28;20092;-76
2024/01/29 04:05:20;;;;;;;6.22;0.40;;;;;;;2.04;64.78;101834.66;5000115;28;20085;-76
2024/01/29 04:07:49;;;;;;;4.38;0.30;;;;;;;2.03;64.82;101830.34;5000612;28;20531;-76
2024/01/29 04:10:17;;;;;;;2.42;0.52;;;;;;;2.05;64.88;101832.13;5001859;28;20493;-75
2024/01/29 04:12:44;;;;;;;3.63;0.30;;;;;;;2.04;64.52;101826.91;4999443;28;20062;-76
2024/01/29 04:15:11;;;;;;;6.57;0.30;;;;;;;2.05;64.72;101815.78;4998674;28;20132;-75
2024/01/29 04:17:38;;;;;;;2.15;0.30;;;;;;;2.05;64.66;101821.81;5002764;28;20073;-75
2024/01/29 04:20:06;;;;;;;7.18;0.35;;;;;;;2.06;64.99;101807.19;4999008;28;20054;-76
2024/01/29 04:22:33;;;;;;;5.40;0.30;;;;;;;2.07;64.66;101811.50;5003235;28;20074;-76
2024/01/29 04:25:04;;;;;;;0.43;0.20;;;;;;;2.06;64.81;101807.19;5003066;28;20058;-74
2024/01/29 04:27:31;;;;;;;3.00;0.40;;;;;;;2.06;64.69;101807.19;5003801;28;20100;-75
2024/01/29 04:29:58;;;;;;;3.63;0.40;;;;;;;2.06;64.69;101794.28;4999435;28;20054;-75
2024/01/29 04:32:25;;;;;;;14.70;1.65;;;;;;;2.07;64.70;101793.44;5000150;28;20081;-72
2024/01/29 04:34:52;;;;;;;2.03;0.32;;;;;;;2.07;64.43;101790.84;5000514;28;20160;-72
2024/01/29 04:37:19;;;;;;;6.38;1.00;;;;;;;2.06;64.70;101784.81;4997970;28;20049;-72
2024/01/29 04:39:46;;;;;;;8.23;0.30;;;;;;;2.07;64.36;101794.31;5000043;28;20796;-71
2024/01/29 04:42:15;;;;;;;3.83;0.32;;;;;;;2.07;64.59;101775.38;5002045;28;20077;-72
2024/01/29 04:44:42;;;;;;;5.00;0.40;;;;;;;2.08;64.79;101790.03;5000663;28;20042;-72
2024/01/29 04:47:09;;;;;;;9.48;0.65;;;;;;;2.05;65.01;101779.63;5000068;28;20050;-72
2024/01/29 04:49:36;;;;;;;2.10;0.40;;;;;;;2.05;64.82;101780.50;5001212;28;20074;-72
2024/01/29 04:52:03;;;;;;;5.45;0.30;;;;;;;2.06;64.94;101778.78;5000408;28;20133;-71
2024/01/29 04:54:30;;;;;;;4.38;0.55;;;;;;;2.07;65.20;101781.41;5000217;28;20081;-71
2024/01/29 04:56:57;;;;;;;4.88;1.25;;;;;;;2.06;64.99;101771.03;5000521;28;20050;-72
2024/01/29 04:59:25;;;;;;;2.25;0.43;;;;;;;2.07;65.17;101770.19;5001036;28;20358;-72
2024/01/29 05:01:52;;;;;;;3.28;0.63;;;;;;;2.07;65.06;101752.13;4998244;28;20128;-72
2024/01/29 05:04:19;;;;;;;1.40;0.30;;;;;;;2.08;65.21;101753.91;4994972;28;20073;-72
2024/01/29 05:06:46;;;;;;;4.07;0.40;;;;;;;2.04;65.28;101754.63;5001405;28;20128;-72
2024/01/29 05:09:13;;;;;;;4.85;0.30;;;;;;;2.07;65.35;101739.22;4998672;28;20082;-72
2024/01/29 05:11:40;;;;;;;3.95;0.40;;;;;;;2.07;65.11;101731.47;5001343;28;20050;-72
2024/01/29 05:14:08;;;;;;;3.72;0.40;;;;;;;2.06;65.42;101730.63;4999268;28;20057;-72
2024/01/29 05:16:36;;;;;;;5.88;0.50;;;;;;;2.06;65.68;101720.28;4999646;28;20137;-72
2024/01/29 05:19:03;;;;;;;4.32;0.60;;;;;;;2.07;65.41;101719.44;4998052;28;20073;-72
2024/01/29 05:21:30;;;;;;;4.00;0.40;;;;;;;2.03;65.63;101712.47;5000721;28;20104;-72
2024/01/29 05:23:57;;;;;;;8.02;1.65;;;;;;;2.07;65.54;101721.16;4999496;28;20054;-72
2024/01/29 05:26:24;;;;;;;9.25;0.93;;;;;;;2.07;65.55;101731.47;4997697;28;20073;-72
2024/01/29 05:28:51;;;;;;;6.10;0.38;;;;;;;2.08;65.70;101739.28;4991736;28;20198;-72
2024/01/29 05:31:17;;;;;;;4.18;0.50;;;;;;;2.07;66.09;101732.34;4998287;28;20133;-70
2024/01/29 05:33:46;;;;;;;7.40;0.85;;;;;;;2.09;66.03;101741.03;4999784;28;20093;-70
2024/01/29 05:36:13;;;;;;;2.85;0.57;;;;;;;2.09;66.05;101737.56;5001065;28;20528;-70
2024/01/29 05:38:40;;;;;;;9.93;0.50;;;;;;;2.09;66.04;101740.16;4996680;28;20131;-71
2024/01/29 05:41:07;;;;;;;3.90;0.60;;;;;;;2.09;66.05;101716.91;4999778;28;20082;-77
2024/01/29 05:43:34;;;;;;;7.50;0.77;;;;;;;2.11;66.11;101723.00;4998225;28;20125;-77
2024/01/29 05:46:01;;;;;;;3.17;0.50;;;;;;;2.11;65.82;101712.69;4999708;28;20133;-76
2024/01/29 05:48:28;;;;;;;4.20;0.30;;;;;;;2.11;66.00;101698.06;5001265;28;20467;-76
2024/01/29 05:50:56;;;;;;;8.63;0.65;;;;;;;2.11;66.14;101686.88;4996937;28;20081;-76
2024/01/29 05:53:23;;;;;;;2.50;0.50;;;;;;;2.12;65.98;101702.38;5000669;28;20141;-76
2024/01/29 05:55:50;;;;;;;10.00;0.73;;;;;;;2.15;66.01;101706.75;4997129;28;20144;-76
2024/01/29 05:58:17;;;;;;;8.90;0.50;;;;;;;2.16;65.82;101721.44;5003977;28;20500;-75
2024/01/29 06:00:44;;;;;;;6.60;1.50;;;;;;;2.17;66.06;101701.66;5002419;28;20133;-75
2024/01/29 06:03:12;;;;;;;5.43;0.50;;;;;;;2.17;66.12;101724.88;5001271;28;20104;-76
2024/01/29 06:05:39;;;;;;;2.65;0.45;;;;;;;2.18;66.23;101704.25;4999454;28;20163;-76
2024/01/29 06:08:07;;;;;;;8.55;1.58;;;;;;;2.20;66.21;101706.88;4999217;28;20069;-76
2024/01/29 06:10:34;;;;;;;8.77;1.60;;;;;;;2.20;66.31;101702.59;4998056;28;20078;-76
2024/01/29 06:13:01;;;;;;;9.82;0.70;;;;;;;2.20;66.28;101727.53;5000138;28;20069;-76
2024/01/29 06:15:28;;;;;;;12.02;1.20;;;;;;;2.22;66.28;101707.81;4998498;28;20081;-76
2024/01/29 06:17:55;;;;;;;4.20;0.88;;;;;;;2.21;66.21;101727.56;4997460;28;20923;-76
2024/01/29 06:20:22;;;;;;;4.18;0.60;;;;;;;2.21;66.38;101714.66;4997164;28;20146;-75
2024/01/29 06:22:49;;;;;;;8.98;1.10;;;;;;;2.23;66.38;101743.13;4998038;28;20126;-75
2024/01/29 06:25:19;;;;;;;4.43;0.45;;;;;;;2.23;66.52;101733.66;4999845;28;20121;-75
2024/01/29 06:27:46;;;;;;;5.40;0.73;;;;;;;2.25;66.39;101738.88;4999754;28;20792;-75
2024/01/29 06:30:14;;;;;;;6.88;0.70;;;;;;;2.25;66.11;101716.50;4996731;28;20054;-76
2024/01/29 06:32:42;;;;;;;3.60;0.50;;;;;;;2.26;66.52;101717.38;5000282;28;20049;-75
2024/01/29 06:35:11;;;;;;;8.43;0.98;;;;;;;2.26;66.55;101710.50;4999597;28;20168;-75
2024/01/29 06:37:38;;;;;;;8.05;0.65;;;;;;;2.26;66.23;101710.50;4995412;28;20485;-75
2024/01/29 06:40:08;;;;;;;7.82;0.80;;;;;;;2.28;66.47;101714.00;5003298;28;20053;-75
2024/01/29 06:42:36;;;;;;;4.45;1.00;;;;;;;2.29;66.40;101725.19;5000738;28;20464;-80
2024/01/29 06:45:04;;;;;;;4.93;0.70;;;;;;;2.29;66.60;101727.78;5006089;28;20104;-79
2024/01/29 06:47:31;;;;;;;5.45;0.65;;;;;;;2.30;66.28;101729.53;5007955;28;20515;-80
2024/01/29 06:49:58;;;;;;;3.22;0.40;;;;;;;2.30;66.45;101730.41;5007564;28;20077;-79
2024/01/29 06:52:25;;;;;;;4.32;0.70;;;;;;;2.31;66.46;101737.31;5001807;28;20046;-76
2024/01/29 06:54:52;;;;;;;3.08;0.50;;;;;;;2.31;66.52;101737.31;4999011;28;20077;-74
2024/01/29 06:57:19;;;;;;;4.35;0.50;;;;;;;2.31;66.32;101732.16;4997715;28;20156;-75
2024/01/29 06:59:47;;;;;;;6.63;0.60;;;;;;;2.32;66.43;101736.47;5001167;28;20842;-75
2024/01/29 07:02:14;;;;;;;5.30;0.93;;;;;;;2.32;66.42;101746.81;5003287;28;20479;-75
2024/01/29 07:04:42;;;;;;;2.28;0.50;;;;;;;2.34;66.66;101742.56;5000323;28;20138;-74
2024/01/29 07:07:09;;;;;;;7.13;0.70;;;;;;;2.34;66.70;101752.91;5000060;28;20061;-75
2024/01/29 07:09:36;;;;;;;6.15;0.68;;;;;;;2.33;67.04;101738.25;4997101;28;20129;-75
2024/01/29 07:12:04;;;;;;;4.25;0.70;;;;;;;2.35;66.59;101746.88;4993556;28;20657;-75
2024/01/29 07:14:31;;;;;;;7.03;1.25;;;;;;;2.34;66.65;101745.16;4998748;28;20105;-76
2024/01/29 07:17:00;;;;;;;3.80;0.60;;;;;;;2.35;66.59;101739.13;4997487;28;20120;-76
2024/01/29 07:19:32;;;;;;;9.18;1.10;;;;;;;2.36;66.94;101746.06;4999371;28;20689;-75
2024/01/29 07:21:59;;;;;;;5.47;0.60;;;;;;;2.36;66.76;101743.50;5001718;28;20054;-75
2024/01/29 07:24:26;;;;;;;7.82;0.85;;;;;;;2.37;66.60;101741.78;4994023;28;20046;-74
2024/01/29 07:26:53;;;;;;;8.45;0.75;;;;;;;2.37;66.69;101740.06;5002723;28;20118;-75
2024/01/29 07:29:20;;;;;;;7.28;1.25;;;;;;;2.37;66.87;101747.81;5001195;28;20085;-75
2024/01/29 07:31:47;;;;;;;7.40;0.70;;;;;;;2.37;66.91;101750.41;4998540;28;20138;-76
2024/01/29 07:34:15;;;;;;;5.45;0.82;;;;;;;2.38;66.94;101757.28;5000045;28;20084;-74
2024/01/29 07:36:42;;;;;;;5.75;0.90;;;;;;;2.38;66.76;101772.78;5001788;28;20077;-76
2024/01/29 07:39:09;;;;;;;3.05;0.50;;;;;;;2.38;67.01;101765.03;5001712;28;20081;-74
2024/01/29 07:41:37;;;;;;;6.60;1.15;;;;;;;2.38;67.06;101769.34;4999633;28;20436;-74
2024/01/29 07:44:04;;;;;;;9.90;0.68;;;;;;;2.39;67.22;101781.44;4999296;28;20493;-74
2024/01/29 07:46:31;;;;;;;1.83;0.50;;;;;;;2.38;67.05;101780.53;5001880;28;20132;-75
2024/01/29 07:49:02;;;;;;;4.93;0.73;;;;;;;2.40;67.08;101777.16;4999617;28;20079;-75
2024/01/29 07:51:31;;;;;;;1.70;0.55;;;;;;;2.34;67.07;101788.19;4998902;28;20678;-81
2024/01/29 07:53:59;;;;;;;4.35;0.60;;;;;;;2.40;67.10;101797.81;5001454;28;20073;-81
2024/01/29 07:56:26;;;;;;;3.97;0.85;;;;;;;2.41;67.12;101812.47;5011272;28;20084;-83
2024/01/29 07:58:52;;;;;;;4.55;1.00;;;;;;;2.38;67.03;101829.63;5013012;28;20077;-82
2024/01/29 08:01:19;;;;;;;4.63;0.70;;;;;;;2.40;67.06;101839.13;5009533;28;20082;-77
2024/01/29 08:03:46;;;;;;;5.82;0.68;;;;;;;2.41;67.27;101833.13;5000732;28;20085;-74
2024/01/29 08:06:13;;;;;;;6.70;1.10;;;;;;;2.41;67.50;101830.53;5000089;28;20073;-74
2024/01/29 08:08:42;;;;;;;6.88;1.77;;;;;;;2.43;67.04;101836.63;5001965;28;20477;-74
2024/01/29 08:11:09;;;;;;;7.22;0.82;;;;;;;2.43;67.24;101839.22;5002264;28;20054;-74
2024/01/29 08:13:36;;;;;;;6.88;0.70;;;;;;;2.43;67.28;101845.25;5000860;28;20066;-75
2024/01/29 08:16:03;;;;;;;1.77;0.50;;;;;;;2.44;67.21;101844.41;4998538;28;20501;-74
2024/01/29 08:18:30;;;;;;;5.60;0.73;;;;;;;2.45;67.37;101853.06;4999476;28;21556;-74
2024/01/29 08:20:57;;;;;;;5.20;0.90;;;;;;;2.46;67.24;101841.88;4998901;28;20082;-75
2024/01/29 08:23:24;;;;;;;8.68;0.70;;;;;;;2.46;67.25;101850.50;5002608;28;20057;-74
2024/01/29 08:25:52;;;;;;;3.53;0.82;;;;;;;2.48;66.98;101858.31;5001157;28;20438;-74
2024/01/29 08:28:19;;;;;;;6.28;0.68;;;;;;;2.48;67.29;101860.88;5000906;28;20073;-73
2024/01/29 08:30:46;;;;;;;4.35;0.80;;;;;;;2.48;67.17;101847.97;4997296;28;20174;-73
2024/01/29 08:33:13;;;;;;;10.18;0.95;;;;;;;2.49;67.26;101865.22;4999967;28;20078;-72
2024/01/29 08:35:40;;;;;;;5.15;0.60;;;;;;;2.49;67.30;101857.47;4999928;28;20512;-73
2024/01/29 08:38:07;;;;;;;8.88;1.67;;;;;;;2.50;67.21;101862.69;5002823;28;20054;-73
2024/01/29 08:40:34;;;;;;;6.85;0.63;;;;;;;2.49;67.04;101854.88;4993128;28;20121;-73
2024/01/29 08:43:02;;;;;;;3.78;1.30;;;;;;;2.52;67.22;101855.84;4996582;28;20190;-73
2024/01/29 08:45:29;;;;;;;3.90;0.60;;;;;;;2.54;67.40;101858.47;4999883;28;20479;-74
2024/01/29 08:47:56;;;;;;;6.75;0.70;;;;;;;2.54;67.24;101851.59;4999026;28;20142;-73
2024/01/29 08:50:23;;;;;;;7.05;0.60;;;;;;;2.55;66.94;101857.63;4995899;28;20078;-73
2024/01/29 08:52:50;;;;;;;11.90;0.77;;;;;;;2.53;67.13;101846.38;4997989;28;20074;-74
2024/01/29 08:55:17;;;;;;;4.03;0.45;;;;;;;2.55;67.05;101845.56;4999097;28;20440;-75
2024/01/29 08:57:44;;;;;;;1.48;0.40;;;;;;;2.57;66.77;101853.38;5000176;28;20065;-74
2024/01/29 09:00:14;;;;;;;4.60;1.60;;;;;;;2.58;67.02;101844.78;4999600;28;20104;-75
2024/01/29 09:02:41;;;;;;;2.45;0.60;;;;;;;2.59;67.21;101851.72;5000296;28;20089;-73
2024/01/29 09:05:08;;;;;;;6.43;1.42;;;;;;;2.60;67.33;101856.91;5002370;28;20046;-74
2024/01/29 09:07:35;;;;;;;2.95;1.23;;;;;;;2.59;67.02;101856.91;5000160;28;20124;-73
2024/01/29 09:10:03;;;;;;;6.05;0.40;;;;;;;2.59;67.33;101851.72;4997821;28;20085;-74
2024/01/29 09:12:29;;;;;;;10.00;0.60;;;;;;;2.64;67.42;101875.09;5001632;28;20048;-77
2024/01/29 09:14:56;;;;;;;3.53;0.40;;;;;;;2.66;67.16;101863.09;5003961;28;20092;-76
2024/01/29 09:17:25;;;;;;;4.30;0.57;;;;;;;2.66;67.24;101878.59;4997539;28;20050;-77
2024/01/29 09:19:52;;;;;;;4.15;0.50;;;;;;;2.68;67.13;101867.47;5000569;28;20096;-76
2024/01/29 09:22:19;;;;;;;5.05;0.80;;;;;;;2.69;66.97;101884.72;5001814;28;20049;-75
2024/01/29 09:24:46;;;;;;;3.00;0.40;;;;;;;2.70;67.02;101899.41;4997514;28;20054;-75
2024/01/29 09:27:13;;;;;;;5.60;0.50;;;;;;;2.72;67.03;101894.25;5001438;28;20060;-76
2024/01/29 09:29:40;;;;;;;5.05;0.85;;;;;;;2.69;67.13;101909.69;5008205;28;20073;-81
2024/01/29 09:32:09;;;;;;;1.38;0.40;;;;;;;2.74;67.10;101906.41;5002910;28;20411;-77
2024/01/29 09:34:37;;;;;;;5.18;0.60;;;;;;;2.76;67.11;101901.28;5000267;28;20050;-75
2024/01/29 09:37:04;;;;;;;2.13;0.40;;;;;;;2.74;66.98;101896.06;5007983;28;20073;-75
2024/01/29 09:39:31;;;;;;;10.25;1.33;;;;;;;2.80;66.91;101905.69;4982540;28;20748;-75
2024/01/29 09:42:03;;;;;;;6.82;0.60;;;;;;;2.81;66.80;101917.78;4997625;28;20073;-75
2024/01/29 09:44:38;;;;;;;3.28;0.40;;;;;;;2.82;67.11;101910.06;4999328;28;20388;-75
2024/01/29 09:47:06;;;;;;;5.82;0.85;;;;;;;2.81;66.63;101890.25;4997147;28;20054;-76
2024/01/29 09:49:34;;;;;;;2.45;0.50;;;;;;;2.83;66.79;101888.56;4996934;28;20116;-74
2024/01/29 09:52:04;;;;;;;5.05;0.60;;;;;;;2.86;66.67;101897.22;4998527;28;20081;-75
2024/01/29 09:54:31;;;;;;;4.97;0.45;;;;;;;2.82;66.65;101891.13;4998815;28;20053;-74
2024/01/29 09:56:58;;;;;;;4.22;0.60;;;;;;;2.87;66.48;101898.97;4999726;28;20398;-78
2024/01/29 09:59:25;;;;;;;2.53;0.50;;;;;;;2.88;66.48;101905.91;5004051;28;20506;-77
2024/01/29 10:01:52;;;;;;;2.17;0.50;;;;;;;2.89;66.65;101897.31;5005863;28;21652;-76
2024/01/29 10:04:21;;;;;;;2.83;0.40;;;;;;;2.89;66.64;101903.34;5001543;28;20104;-75
2024/01/29 10:06:48;;;;;;;5.32;0.70;;;;;;;2.91;66.54;101908.56;5000177;28;20500;-76
2024/01/29 10:09:17;;;;;;;2.55;0.50;;;;;;;2.92;66.66;101903.44;5005872;28;20508;-77
2024/01/29 10:11:44;;;;;;;3.83;0.50;;;;;;;2.92;66.66;101902.56;5006030;28;20077;-88
2024/01/29 10:14:11;;;;;;;4.80;0.50;;;;;;;2.96;66.58;101909.59;5001841;28;20078;-83
2024/01/29 10:16:39;;;;;;;12.07;2.35;;;;;;;2.97;66.80;101912.19;5006792;28;20046;-77
2024/01/29 10:19:05;;;;;;;6.05;0.73;;;;;;;2.98;66.75;101913.94;5001781;28;20073;-77
2024/01/29 10:21:38;;;;;;;3.15;0.50;;;;;;;3.00;66.80;101911.41;5007498;28;20081;-75
2024/01/29 10:24:06;;;;;;;8.93;0.50;;;;;;;3.01;66.72;101903.69;5009751;28;20088;-75
2024/01/29 10:26:35;;;;;;;3.50;0.65;;;;;;;3.03;66.80;101911.47;5008740;28;20053;-78
2024/01/29 10:29:02;;;;;;;2.30;0.60;;;;;;;3.04;66.70;101908.06;5006180;28;20057;-77
2024/01/29 10:31:29;;;;;;;6.43;0.50;;;;;;;3.05;66.83;101904.66;4999544;28;20042;-75
2024/01/29 10:33:56;;;;;;;4.25;0.60;;;;;;;3.07;66.80;101903.00;5007144;28;20129;-77
2024/01/29 10:36:23;;;;;;;5.32;0.40;;;;;;;3.09;66.72;101908.19;5009820;28;20046;-76
2024/01/29 10:38:52;;;;;;;1.67;0.80;;;;;;;3.09;66.80;101898.72;5008516;28;20042;-78
2024/01/29 10:41:21;;;;;;;5.28;0.60;;;;;;;3.11;66.72;101901.34;5004703;28;20085;-75
2024/01/29 10:43:50;;;;;;;3.08;0.50;;;;;;;3.12;66.71;101898.78;5001326;28;20065;-76
2024/01/29 10:46:19;;;;;;;3.65;0.65;;;;;;;3.13;66.89;101903.16;5003568;28;20046;-75
2024/01/29 10:48:46;;;;;;;1.85;0.40;;;;;;;3.14;66.92;101899.72;5002481;28;20046;-75
2024/01/29 10:51:14;;;;;;;2.53;0.40;;;;;;;3.15;66.81;101895.41;5006204;28;20084;-80
2024/01/29 10:53:41;;;;;;;3.17;0.50;;;;;;;3.16;66.80;101881.66;5007112;28;20134;-80
2024/01/29 10:56:09;;;;;;;5.65;0.80;;;;;;;3.16;66.80;101890.28;5014140;28;20104;-81
2024/01/29 10:58:37;;;;;;;3.95;0.52;;;;;;;3.18;66.79;101885.13;5006579;28;20050;-81
2024/01/29 11:01:06;;;;;;;4.97;0.50;;;;;;;3.20;66.73;101873.13;5014296;28;20133;-80
2024/01/29 11:03:35;;;;;;;2.45;0.40;;;;;;;3.21;66.93;101862.84;4993911;28;20089;-81
2024/01/29 11:06:20;;;;;;;5.90;0.40;;;;;;;3.17;66.99;101868.75;5010803;28;20073;-81
2024/01/29 11:08:54;;;;;;;4.32;0.55;;;;;;;3.21;66.91;101886.13;5008769;28;20165;-80
2024/01/29 11:11:23;;;;;;;4.55;0.50;;;;;;;3.22;67.04;101887.84;5011104;28;20050;-81
2024/01/29 11:13:51;;;;;;;3.85;0.50;;;;;;;3.23;66.90;101889.59;5011287;28;20050;-81
2024/01/29 11:16:19;;;;;;;4.07;0.45;;;;;;;3.24;67.13;101896.53;5012892;28;20070;-79
2024/01/29 11:18:47;;;;;;;3.67;0.88;;;;;;;3.25;67.12;101898.28;5006583;28;20124;-78
2024/01/29 11:21:14;;;;;;;3.83;0.70;;;;;;;3.26;67.02;101891.38;5009609;28;20121;-82
2024/01/29 11:23:46;;;;;;;5.13;0.70;;;;;;;3.27;66.82;101891.44;5007961;28;20053;-81
2024/01/29 11:26:15;;;;;;;2.80;0.70;;;;;;;3.28;67.17;101895.75;5004202;28;20054;-84
2024/01/29 11:28:43;;;;;;;3.38;0.88;;;;;;;3.29;67.21;101896.63;5003046;28;20042;-88
2024/01/29 11:31:13;;;;;;;5.65;0.70;;;;;;;3.30;67.22;101901.00;5009158;28;20073;-78
2024/01/29 11:33:43;;;;;;;5.28;1.60;;;;;;;3.32;67.20;101903.59;5014803;28;20078;-79
2024/01/29 11:36:13;;;;;;;8.60;2.03;;;;;;;3.26;67.16;101888.81;5010863;28;20060;-79